Time,TemperatureF,DewpointF,PressureIn,WindDirection,WindDirectionDegrees,WindSpeedMPH,WindSpeedGustMPH,Humidity,HourlyPrecipIn,Conditions,Clouds,dailyrainin,SoftwareType,DateUTC
2012-10-02 00:03:00,52.7,47.4,30.11,NNW,337,0.0,0.0,82,0.00,,,0.00,WUHU21623XXSP,2012-10-02 07:03:00,
2012-10-02 00:08:00,52.5,47.2,30.11,NNW,337,0.0,0.0,82,0.00,,,0.00,WUHU21623XXSP,2012-10-02 07:08:00,
2012-10-02 00:13:00,52.3,47.3,30.11,NNW,337,0.0,0.0,83,0.00,,,0.00,WUHU21623XXSP,2012-10-02 07:13:00,
2012-10-02 00:18:00,52.2,47.3,30.12,NNW,337,0.0,0.0,83,0.00,,,0.00,WUHU21623XXSP,2012-10-02 07:18:00,
2012-10-02 00:23:00,52.0,47.0,30.11,NNW,337,0.0,0.0,83,0.00,,,0.00,WUHU21623XXSP,2012-10-02 07:23:00,
2012-10-02 00:28:00,51.8,46.8,30.12,NNW,337,0.0,0.0,83,0.00,,,0.00,WUHU21623XXSP,2012-10-02 07:28:00,
2012-10-02 00:33:00,51.6,46.6,30.12,NNW,337,0.0,0.0,83,0.00,,,0.00,WUHU21623XXSP,2012-10-02 07:33:00,
2012-10-02 00:38:00,51.6,46.9,30.12,NNW,337,0.0,0.0,84,0.00,,,0.00,WUHU21623XXSP,2012-10-02 07:38:00,
2012-10-02 00:43:00,51.6,46.9,30.12,NNW,337,0.0,0.0,84,0.00,,,0.00,WUHU21623XXSP,2012-10-02 07:43:00,
2012-10-02 00:48:00,51.4,46.7,30.12,NNW,337,0.0,0.0,84,0.00,,,0.00,WUHU21623XXSP,2012-10-02 07:48:00,
2012-10-02 00:53:00,51.4,46.7,30.11,NNW,337,0.0,0.0,84,0.00,,,0.00,WUHU21623XXSP,2012-10-02 07:53:00,
2012-10-02 00:58:00,51.3,46.9,30.12,NNW,337,0.0,0.0,85,0.00,,,0.00,WUHU21623XXSP,2012-10-02 07:58:00,
2012-10-02 01:03:00,51.1,46.9,30.12,NNE,22,0.0,0.0,85,0.00,,,0.00,WUHU21623XXSP,2012-10-02 08:03:00,
2012-10-02 01:08:00,51.1,46.7,30.12,NNE,22,0.0,0.0,85,0.00,,,0.00,WUHU21623XXSP,2012-10-02 08:08:00,
2012-10-02 01:13:00,51.1,46.7,30.12,NNE,22,0.0,0.0,85,0.00,,,0.00,WUHU21623XXSP,2012-10-02 08:13:00,
2012-10-02 01:18:00,50.9,46.5,30.12,NNE,22,0.0,0.0,85,0.00,,,0.00,WUHU21623XXSP,2012-10-02 08:18:00,
2012-10-02 01:23:00,50.9,46.5,30.12,NNE,22,0.0,0.0,85,0.00,,,0.00,WUHU21623XXSP,2012-10-02 08:23:00,
2012-10-02 01:28:00,50.7,46.3,30.12,NNE,22,0.0,0.0,85,0.00,,,0.00,WUHU21623XXSP,2012-10-02 08:28:00,
2012-10-02 01:33:00,50.7,46.3,30.12,NNE,22,0.0,0.0,85,0.00,,,0.00,WUHU21623XXSP,2012-10-02 08:33:00,
2012-10-02 01:38:00,50.5,46.1,30.12,NNE,22,0.0,0.0,85,0.00,,,0.00,WUHU21623XXSP,2012-10-02 08:38:00,
2012-10-02 01:43:00,50.4,46.0,30.12,NNE,22,0.0,0.0,85,0.00,,,0.00,WUHU21623XXSP,2012-10-02 08:43:00,
2012-10-02 01:48:00,50.2,45.8,30.12,NNE,22,0.0,0.0,85,0.00,,,0.00,WUHU21623XXSP,2012-10-02 08:48:00,
2012-10-02 01:53:00,50.0,45.9,30.12,NNE,22,0.0,0.0,86,0.00,,,0.00,WUHU21623XXSP,2012-10-02 08:53:00,
2012-10-02 01:58:00,49.8,45.7,30.12,NNE,22,0.0,0.0,86,0.00,,,0.00,WUHU21623XXSP,2012-10-02 08:58:00,
2012-10-02 02:03:00,49.6,45.6,30.12,NNE,22,0.0,0.0,86,0.00,,,0.00,WUHU21623XXSP,2012-10-02 09:03:00,
2012-10-02 02:08:00,49.3,45.2,30.12,NNE,22,0.0,0.0,86,0.00,,,0.00,WUHU21623XXSP,2012-10-02 09:08:00,
2012-10-02 02:13:00,49.1,45.0,30.12,NNE,22,0.0,0.0,86,0.00,,,0.00,WUHU21623XXSP,2012-10-02 09:13:00,
2012-10-02 02:18:00,48.9,44.9,30.12,NNE,22,0.0,0.0,86,0.00,,,0.00,WUHU21623XXSP,2012-10-02 09:18:00,
2012-10-02 02:23:00,48.7,45.0,30.12,NNE,22,0.0,0.0,87,0.00,,,0.00,WUHU21623XXSP,2012-10-02 09:23:00,
2012-10-02 02:28:00,48.7,45.0,30.12,NNE,22,0.0,0.0,87,0.00,,,0.00,WUHU21623XXSP,2012-10-02 09:28:00,
2012-10-02 02:33:00,48.6,44.9,30.12,NNE,22,0.0,0.0,87,0.00,,,0.00,WUHU21623XXSP,2012-10-02 09:33:00,
2012-10-02 02:38:00,48.4,44.7,30.12,NNE,22,0.0,0.0,87,0.00,,,0.00,WUHU21623XXSP,2012-10-02 09:38:00,
2012-10-02 02:43:00,48.4,44.7,30.12,NNE,22,0.0,0.0,87,0.00,,,0.00,WUHU21623XXSP,2012-10-02 09:43:00,
2012-10-02 02:48:00,48.0,44.3,30.12,NNE,22,0.0,0.0,87,0.00,,,0.00,WUHU21623XXSP,2012-10-02 09:48:00,
2012-10-02 02:53:00,48.0,44.3,30.12,NNE,22,0.0,0.0,87,0.00,,,0.00,WUHU21623XXSP,2012-10-02 09:53:00,
2012-10-02 02:58:00,48.0,44.3,30.12,NNE,22,0.0,0.0,87,0.00,,,0.00,WUHU21623XXSP,2012-10-02 09:58:00,
2012-10-02 03:03:00,47.8,44.2,30.12,NNE,22,0.0,0.0,87,0.00,,,0.00,WUHU21623XXSP,2012-10-02 10:03:00,
2012-10-02 03:08:00,47.7,44.0,30.12,NNE,22,0.0,0.0,87,0.00,,,0.00,WUHU21623XXSP,2012-10-02 10:08:00,
2012-10-02 03:13:00,47.7,44.0,30.12,NNE,22,0.0,0.0,87,0.00,,,0.00,WUHU21623XXSP,2012-10-02 10:13:00,
2012-10-02 03:18:00,47.5,44.1,30.12,NNE,22,0.0,0.0,88,0.00,,,0.00,WUHU21623XXSP,2012-10-02 10:18:00,
2012-10-02 03:23:00,47.5,44.1,30.12,NNE,22,0.0,0.0,88,0.00,,,0.00,WUHU21623XXSP,2012-10-02 10:23:00,
2012-10-02 03:28:00,47.3,44.0,30.12,NNE,22,0.0,0.0,88,0.00,,,0.00,WUHU21623XXSP,2012-10-02 10:28:00,
2012-10-02 03:33:00,47.3,44.0,30.12,NNE,22,0.0,0.0,88,0.00,,,0.00,WUHU21623XXSP,2012-10-02 10:33:00,
2012-10-02 03:38:00,47.3,44.0,30.12,NNE,22,0.0,0.0,88,0.00,,,0.00,WUHU21623XXSP,2012-10-02 10:38:00,
2012-10-02 03:43:00,47.1,43.8,30.12,NNE,22,0.0,0.0,88,0.00,,,0.00,WUHU21623XXSP,2012-10-02 10:43:00,
2012-10-02 03:48:00,47.1,43.8,30.12,NNE,22,0.0,0.0,88,0.00,,,0.00,WUHU21623XXSP,2012-10-02 10:48:00,
2012-10-02 03:53:00,47.1,44.1,30.12,NNE,22,0.0,0.0,89,0.00,,,0.00,WUHU21623XXSP,2012-10-02 10:53:00,
2012-10-02 03:58:00,47.1,44.1,30.12,NNE,22,0.0,0.0,89,0.00,,,0.00,WUHU21623XXSP,2012-10-02 10:58:00,
2012-10-02 04:03:00,46.9,43.9,30.12,NNE,22,0.0,0.0,89,0.00,,,0.00,WUHU21623XXSP,2012-10-02 11:03:00,
2012-10-02 04:08:00,46.8,43.7,30.12,NNE,22,0.0,0.0,89,0.00,,,0.00,WUHU21623XXSP,2012-10-02 11:08:00,
2012-10-02 04:13:00,46.8,43.7,30.12,NNE,22,0.0,0.0,89,0.00,,,0.00,WUHU21623XXSP,2012-10-02 11:13:00,
2012-10-02 04:18:00,46.6,43.6,30.13,NNE,22,0.0,0.0,88,0.00,,,0.00,WUHU21623XXSP,2012-10-02 11:18:00,
2012-10-02 04:23:00,46.6,43.3,30.13,NNE,22,0.0,0.0,88,0.00,,,0.00,WUHU21623XXSP,2012-10-02 11:23:00,
2012-10-02 04:28:00,46.4,43.4,30.13,NNE,22,0.0,0.0,89,0.00,,,0.00,WUHU21623XXSP,2012-10-02 11:28:00,
2012-10-02 04:33:00,46.2,43.2,30.13,NNE,22,0.0,0.0,89,0.00,,,0.00,WUHU21623XXSP,2012-10-02 11:33:00,
2012-10-02 04:38:00,46.2,43.2,30.13,NNE,22,0.0,0.0,89,0.00,,,0.00,WUHU21623XXSP,2012-10-02 11:38:00,
2012-10-02 04:43:00,46.2,43.2,30.13,NNE,22,0.0,0.0,89,0.00,,,0.00,WUHU21623XXSP,2012-10-02 11:43:00,
2012-10-02 04:48:00,46.0,43.0,30.13,NNE,22,0.0,0.0,89,0.00,,,0.00,WUHU21623XXSP,2012-10-02 11:48:00,
2012-10-02 04:53:00,45.9,43.0,30.14,NNE,22,0.0,0.0,89,0.00,,,0.00,WUHU21623XXSP,2012-10-02 11:53:00,
2012-10-02 04:58:00,45.9,42.9,30.14,NNE,22,0.0,0.0,89,0.00,,,0.00,WUHU21623XXSP,2012-10-02 11:58:00,
2012-10-02 05:03:00,46.0,43.0,30.14,North,0,0.0,0.0,88,0.00,,,0.00,WUHU21623XXSP,2012-10-02 12:03:00,
2012-10-02 05:08:00,46.2,42.6,30.14,North,0,0.0,0.0,87,0.00,,,0.00,WUHU21623XXSP,2012-10-02 12:08:00,
2012-10-02 05:13:00,46.6,42.9,30.14,North,0,0.0,0.0,87,0.00,,,0.00,WUHU21623XXSP,2012-10-02 12:13:00,
2012-10-02 05:18:00,46.8,42.8,30.14,NW,315,0.0,0.0,86,0.00,,,0.00,WUHU21623XXSP,2012-10-02 12:18:00,
2012-10-02 05:23:00,46.6,42.6,30.14,NW,315,0.0,0.0,86,0.00,,,0.00,WUHU21623XXSP,2012-10-02 12:23:00,
2012-10-02 05:28:00,46.2,42.3,30.14,NW,315,0.0,0.0,86,0.00,,,0.00,WUHU21623XXSP,2012-10-02 12:28:00,
2012-10-02 05:33:00,46.2,42.3,30.14,NW,315,0.0,0.0,86,0.00,,,0.00,WUHU21623XXSP,2012-10-02 12:33:00,
2012-10-02 05:38:00,46.0,42.4,30.14,NW,315,0.0,0.0,87,0.00,,,0.00,WUHU21623XXSP,2012-10-02 12:38:00,
2012-10-02 05:43:00,45.7,42.1,30.14,NW,315,0.0,0.0,87,0.00,,,0.00,WUHU21623XXSP,2012-10-02 12:43:00,
2012-10-02 05:48:00,45.7,42.1,30.15,NW,315,0.0,0.0,87,0.00,,,0.00,WUHU21623XXSP,2012-10-02 12:48:00,
2012-10-02 05:53:00,45.3,41.7,30.14,NW,315,0.0,0.0,87,0.00,,,0.00,WUHU21623XXSP,2012-10-02 12:53:00,
2012-10-02 05:58:00,45.1,41.2,30.15,NW,315,0.0,0.0,86,0.00,,,0.00,WUHU21623XXSP,2012-10-02 12:58:00,
2012-10-02 06:03:00,45.1,41.2,30.15,NW,315,0.0,0.0,86,0.00,,,0.00,WUHU21623XXSP,2012-10-02 13:03:00,
2012-10-02 06:08:00,45.0,41.0,30.15,ENE,67,0.0,0.0,86,0.00,,,0.00,WUHU21623XXSP,2012-10-02 13:08:00,
2012-10-02 06:13:00,44.8,41.0,30.15,ENE,67,0.0,0.0,86,0.00,,,0.00,WUHU21623XXSP,2012-10-02 13:13:00,
2012-10-02 06:18:00,44.6,40.7,30.15,ENE,67,0.0,0.0,86,0.00,,,0.00,WUHU21623XXSP,2012-10-02 13:18:00,
2012-10-02 06:23:00,44.4,40.5,30.14,ENE,67,0.0,0.0,86,0.00,,,0.00,WUHU21623XXSP,2012-10-02 13:23:00,
2012-10-02 06:28:00,44.4,40.5,30.14,ENE,67,0.0,0.0,86,0.00,,,0.00,WUHU21623XXSP,2012-10-02 13:28:00,
2012-10-02 06:33:00,44.2,40.3,30.14,ENE,67,0.0,0.0,86,0.00,,,0.00,WUHU21623XXSP,2012-10-02 13:33:00,
2012-10-02 06:38:00,44.2,40.6,30.14,ENE,67,0.0,0.0,87,0.00,,,0.00,WUHU21623XXSP,2012-10-02 13:38:00,
2012-10-02 06:43:00,44.1,40.4,30.14,ENE,67,0.0,0.0,87,0.00,,,0.00,WUHU21623XXSP,2012-10-02 13:43:00,
2012-10-02 06:48:00,43.9,40.3,30.14,ENE,67,0.0,0.0,87,0.00,,,0.00,WUHU21623XXSP,2012-10-02 13:48:00,
2012-10-02 06:53:00,43.7,40.1,30.14,ENE,67,0.0,0.0,87,0.00,,,0.00,WUHU21623XXSP,2012-10-02 13:53:00,
2012-10-02 06:58:00,43.7,40.1,30.15,ENE,67,0.0,0.0,87,0.00,,,0.00,WUHU21623XXSP,2012-10-02 13:58:00,
2012-10-02 07:03:00,43.7,40.1,30.15,ENE,67,0.0,0.0,87,0.00,,,0.00,WUHU21623XXSP,2012-10-02 14:03:00,
2012-10-02 07:08:00,43.5,39.9,30.15,ENE,67,0.0,0.0,87,0.00,,,0.00,WUHU21623XXSP,2012-10-02 14:08:00,
2012-10-02 07:13:00,43.3,39.7,30.15,ENE,67,0.0,0.0,87,0.00,,,0.00,WUHU21623XXSP,2012-10-02 14:13:00,
2012-10-02 07:18:00,43.3,39.7,30.15,ENE,67,0.0,0.0,87,0.00,,,0.00,WUHU21623XXSP,2012-10-02 14:18:00,
2012-10-02 07:23:00,43.2,39.7,30.15,ENE,67,0.0,0.0,87,0.00,,,0.00,WUHU21623XXSP,2012-10-02 14:23:00,
2012-10-02 07:28:00,43.0,39.4,30.15,ENE,67,0.0,0.0,87,0.00,,,0.00,WUHU21623XXSP,2012-10-02 14:28:00,
2012-10-02 07:33:00,42.8,39.2,30.15,ENE,67,0.0,0.0,87,0.00,,,0.00,WUHU21623XXSP,2012-10-02 14:33:00,
2012-10-02 07:38:00,42.6,39.0,30.15,ENE,67,0.0,0.0,87,0.00,,,0.00,WUHU21623XXSP,2012-10-02 14:38:00,
2012-10-02 07:43:00,42.6,39.0,30.15,ENE,67,0.0,0.0,87,0.00,,,0.00,WUHU21623XXSP,2012-10-02 14:43:00,
2012-10-02 07:48:00,42.4,38.8,30.15,ENE,67,0.0,0.0,87,0.00,,,0.00,WUHU21623XXSP,2012-10-02 14:48:00,
2012-10-02 07:53:00,42.4,38.8,30.16,ENE,67,0.0,0.0,87,0.00,,,0.00,WUHU21623XXSP,2012-10-02 14:53:00,
2012-10-02 07:58:00,42.4,38.8,30.16,ENE,67,0.0,0.0,87,0.00,,,0.00,WUHU21623XXSP,2012-10-02 14:58:00,
2012-10-02 08:03:00,42.4,38.8,30.16,ENE,67,0.0,0.0,87,0.00,,,0.00,WUHU21623XXSP,2012-10-02 15:03:00,
2012-10-02 08:08:00,42.4,39.1,30.16,ENE,67,0.0,0.0,88,0.00,,,0.00,WUHU21623XXSP,2012-10-02 15:08:00,
2012-10-02 08:13:00,42.4,39.1,30.16,ENE,67,0.0,0.0,88,0.00,,,0.00,WUHU21623XXSP,2012-10-02 15:13:00,
2012-10-02 08:18:00,42.4,39.1,30.16,ENE,67,0.0,0.0,88,0.00,,,0.00,WUHU21623XXSP,2012-10-02 15:18:00,
2012-10-02 08:23:00,42.4,39.1,30.16,ENE,67,0.0,0.0,88,0.00,,,0.00,WUHU21623XXSP,2012-10-02 15:23:00,
2012-10-02 08:28:00,42.6,39.3,30.16,ENE,67,0.0,0.0,88,0.00,,,0.00,WUHU21623XXSP,2012-10-02 15:28:00,
2012-10-02 08:33:00,42.6,39.3,30.16,ENE,67,0.0,0.0,88,0.00,,,0.00,WUHU21623XXSP,2012-10-02 15:33:00,
2012-10-02 08:38:00,43.0,39.7,30.16,ENE,67,0.0,0.0,88,0.00,,,0.00,WUHU21623XXSP,2012-10-02 15:38:00,
2012-10-02 08:43:00,43.2,40.2,30.16,ENE,67,0.0,0.0,89,0.00,,,0.00,WUHU21623XXSP,2012-10-02 15:43:00,
2012-10-02 08:48:00,43.3,40.2,30.16,ENE,67,0.0,0.0,89,0.00,,,0.00,WUHU21623XXSP,2012-10-02 15:48:00,
2012-10-02 08:53:00,43.5,40.5,30.15,ENE,67,0.0,0.0,89,0.00,,,0.00,WUHU21623XXSP,2012-10-02 15:53:00,
2012-10-02 08:58:00,43.9,40.9,30.15,ENE,67,0.0,0.0,89,0.00,,,0.00,WUHU21623XXSP,2012-10-02 15:58:00,
2012-10-02 09:03:00,44.2,41.2,30.15,ENE,67,0.0,0.0,89,0.00,,,0.00,WUHU21623XXSP,2012-10-02 16:03:00,
2012-10-02 09:08:00,44.8,41.8,30.15,ENE,67,0.0,0.0,89,0.00,,,0.00,WUHU21623XXSP,2012-10-02 16:08:00,
2012-10-02 09:13:00,45.3,42.3,30.16,ENE,67,0.0,0.0,89,0.00,,,0.00,WUHU21623XXSP,2012-10-02 16:13:00,
2012-10-02 09:18:00,45.9,43.2,30.16,ENE,67,0.0,0.0,90,0.00,,,0.00,WUHU21623XXSP,2012-10-02 16:18:00,
2012-10-02 09:23:00,46.8,44.1,30.16,ENE,67,0.0,0.0,90,0.00,,,0.00,WUHU21623XXSP,2012-10-02 16:23:00,
2012-10-02 09:28:00,47.3,44.3,30.16,ENE,67,0.0,0.0,89,0.00,,,0.00,WUHU21623XXSP,2012-10-02 16:28:00,
2012-10-02 09:33:00,48.0,45.0,30.16,NE,45,0.0,0.0,89,0.00,,,0.00,WUHU21623XXSP,2012-10-02 16:33:00,
2012-10-02 09:38:00,48.7,44.7,30.16,NE,45,0.0,0.0,86,0.00,,,0.00,WUHU21623XXSP,2012-10-02 16:38:00,
2012-10-02 09:43:00,49.3,44.6,30.16,NE,45,0.0,0.0,84,0.00,,,0.00,WUHU21623XXSP,2012-10-02 16:43:00,
2012-10-02 09:48:00,49.8,44.8,30.16,NE,45,0.0,0.0,83,0.00,,,0.00,WUHU21623XXSP,2012-10-02 16:48:00,
2012-10-02 09:53:00,50.5,45.2,30.15,NE,45,0.0,0.0,82,0.00,,,0.00,WUHU21623XXSP,2012-10-02 16:53:00,
2012-10-02 09:58:00,51.1,45.4,30.15,SW,225,0.0,0.0,81,0.00,,,0.00,WUHU21623XXSP,2012-10-02 16:58:00,
2012-10-02 10:03:00,51.6,45.0,30.16,North,0,0.0,0.0,78,0.00,,,0.00,WUHU21623XXSP,2012-10-02 17:03:00,
2012-10-02 10:08:00,52.2,45.2,30.16,NW,315,0.0,0.0,77,0.00,,,0.00,WUHU21623XXSP,2012-10-02 17:08:00,
2012-10-02 10:13:00,52.3,43.3,30.16,WNW,292,0.0,0.0,71,0.00,,,0.00,WUHU21623XXSP,2012-10-02 17:13:00,
2012-10-02 10:18:00,52.9,41.8,30.16,NNW,337,0.0,0.0,66,0.00,,,0.00,WUHU21623XXSP,2012-10-02 17:18:00,
2012-10-02 10:23:00,53.4,41.1,30.15,NNW,337,0.0,0.0,63,0.00,,,0.00,WUHU21623XXSP,2012-10-02 17:23:00,
2012-10-02 10:28:00,54.0,40.8,30.15,North,0,0.0,0.0,61,0.00,,,0.00,WUHU21623XXSP,2012-10-02 17:28:00,
2012-10-02 10:33:00,54.3,39.8,30.15,NNW,337,0.0,0.0,58,0.00,,,0.00,WUHU21623XXSP,2012-10-02 17:33:00,
2012-10-02 10:38:00,55.2,40.2,30.15,NNW,337,0.0,0.0,57,0.00,,,0.00,WUHU21623XXSP,2012-10-02 17:38:00,
2012-10-02 10:43:00,55.6,40.5,30.14,NNW,337,0.0,0.0,57,0.00,,,0.00,WUHU21623XXSP,2012-10-02 17:43:00,
2012-10-02 10:48:00,55.8,39.7,30.14,NNW,337,0.0,0.0,55,0.00,,,0.00,WUHU21623XXSP,2012-10-02 17:48:00,
2012-10-02 10:53:00,56.3,39.3,30.15,North,0,0.0,0.0,53,0.00,,,0.00,WUHU21623XXSP,2012-10-02 17:53:00,
2012-10-02 10:58:00,56.8,39.4,30.15,NW,315,0.0,0.0,52,0.00,,,0.00,WUHU21623XXSP,2012-10-02 17:58:00,
2012-10-02 11:03:00,57.0,39.6,30.15,NNW,337,0.0,0.0,52,0.00,,,0.00,WUHU21623XXSP,2012-10-02 18:03:00,
2012-10-02 11:08:00,57.6,39.5,30.15,NNW,337,0.0,0.0,50,0.00,,,0.00,WUHU21623XXSP,2012-10-02 18:08:00,
2012-10-02 11:13:00,58.1,38.8,30.15,NNW,337,0.0,0.0,49,0.00,,,0.00,WUHU21623XXSP,2012-10-02 18:13:00,
2012-10-02 11:18:00,58.6,39.0,30.15,North,0,0.0,0.0,48,0.00,,,0.00,WUHU21623XXSP,2012-10-02 18:18:00,
2012-10-02 11:23:00,59.2,38.9,30.15,NNW,337,0.0,0.0,47,0.00,,,0.00,WUHU21623XXSP,2012-10-02 18:23:00,
2012-10-02 11:28:00,59.4,38.5,30.14,NNW,337,0.0,0.0,46,0.00,,,0.00,WUHU21623XXSP,2012-10-02 18:28:00,
2012-10-02 11:33:00,59.4,38.5,30.15,NNW,337,0.0,0.0,46,0.00,,,0.00,WUHU21623XXSP,2012-10-02 18:33:00,
2012-10-02 11:38:00,59.4,37.9,30.15,SW,225,0.0,0.0,45,0.00,,,0.00,WUHU21623XXSP,2012-10-02 18:38:00,
2012-10-02 11:43:00,59.2,37.2,30.15,NNW,337,0.0,0.0,44,0.00,,,0.00,WUHU21623XXSP,2012-10-02 18:43:00,
2012-10-02 11:48:00,59.4,37.3,30.15,North,0,0.0,0.0,44,0.00,,,0.00,WUHU21623XXSP,2012-10-02 18:48:00,
2012-10-02 11:53:00,59.5,37.5,30.15,West,270,0.0,0.0,44,0.00,,,0.00,WUHU21623XXSP,2012-10-02 18:53:00,
2012-10-02 11:58:00,59.5,37.5,30.15,SE,135,0.0,0.0,44,0.00,,,0.00,WUHU21623XXSP,2012-10-02 18:58:00,
2012-10-02 12:03:00,59.7,37.1,30.15,NW,315,0.0,0.0,43,0.00,,,0.00,WUHU21623XXSP,2012-10-02 19:03:00,
2012-10-02 12:08:00,59.7,37.1,30.15,North,0,0.0,0.0,43,0.00,,,0.00,WUHU21623XXSP,2012-10-02 19:08:00,
2012-10-02 12:13:00,59.7,37.1,30.15,WNW,292,0.0,0.0,43,0.00,,,0.00,WUHU21623XXSP,2012-10-02 19:13:00,
2012-10-02 12:18:00,59.7,37.1,30.15,North,0,0.0,0.0,43,0.00,,,0.00,WUHU21623XXSP,2012-10-02 19:18:00,
2012-10-02 12:23:00,59.9,36.7,30.15,NW,315,0.0,0.0,42,0.00,,,0.00,WUHU21623XXSP,2012-10-02 19:23:00,
2012-10-02 12:28:00,59.9,36.7,30.15,NW,315,0.0,0.0,42,0.00,,,0.00,WUHU21623XXSP,2012-10-02 19:28:00,
2012-10-02 12:33:00,59.9,36.7,30.15,WNW,292,0.0,0.0,42,0.00,,,0.00,WUHU21623XXSP,2012-10-02 19:33:00,
2012-10-02 12:38:00,59.9,36.1,30.15,WNW,292,0.0,0.0,41,0.00,,,0.00,WUHU21623XXSP,2012-10-02 19:38:00,
2012-10-02 12:43:00,59.9,35.5,30.15,NNW,337,0.0,0.0,40,0.00,,,0.00,WUHU21623XXSP,2012-10-02 19:43:00,
2012-10-02 12:48:00,59.9,36.1,30.15,North,0,0.0,0.0,41,0.00,,,0.00,WUHU21623XXSP,2012-10-02 19:48:00,
2012-10-02 12:53:00,60.1,35.7,30.15,North,0,0.0,0.0,40,0.00,,,0.00,WUHU21623XXSP,2012-10-02 19:53:00,
2012-10-02 12:58:00,60.1,35.7,30.15,NNW,337,0.0,0.0,40,0.00,,,0.00,WUHU21623XXSP,2012-10-02 19:58:00,
2012-10-02 13:03:00,60.1,35.0,30.14,NW,315,0.0,0.0,39,0.00,,,0.00,WUHU21623XXSP,2012-10-02 20:03:00,
2012-10-02 13:08:00,59.9,34.8,30.14,NW,315,0.0,0.0,39,0.00,,,0.00,WUHU21623XXSP,2012-10-02 20:08:00,
2012-10-02 13:13:00,59.9,35.5,30.14,NW,315,0.0,0.0,40,0.00,,,0.00,WUHU21623XXSP,2012-10-02 20:13:00,
2012-10-02 13:18:00,60.1,35.7,30.14,North,0,0.0,0.0,40,0.00,,,0.00,WUHU21623XXSP,2012-10-02 20:18:00,
2012-10-02 13:23:00,60.1,35.7,30.14,NNW,337,0.0,0.0,40,0.00,,,0.00,WUHU21623XXSP,2012-10-02 20:23:00,
2012-10-02 13:28:00,60.1,35.7,30.13,NNW,337,0.0,0.0,40,0.00,,,0.00,WUHU21623XXSP,2012-10-02 20:28:00,
2012-10-02 13:33:00,60.1,35.7,30.13,NW,315,0.0,0.0,40,0.00,,,0.00,WUHU21623XXSP,2012-10-02 20:33:00,
2012-10-02 13:38:00,60.4,36.0,30.13,North,0,0.0,0.0,40,0.00,,,0.00,WUHU21623XXSP,2012-10-02 20:38:00,
2012-10-02 13:43:00,60.4,36.0,30.13,NNW,337,0.0,0.0,40,0.00,,,0.00,WUHU21623XXSP,2012-10-02 20:43:00,
2012-10-02 13:48:00,60.4,36.0,30.13,North,0,0.0,0.0,40,0.00,,,0.00,WUHU21623XXSP,2012-10-02 20:48:00,
2012-10-02 13:53:00,60.4,36.0,30.13,NNW,337,0.0,0.0,40,0.00,,,0.00,WUHU21623XXSP,2012-10-02 20:53:00,
2012-10-02 13:58:00,60.4,36.0,30.13,NNW,337,0.0,0.0,40,0.00,,,0.00,WUHU21623XXSP,2012-10-02 20:58:00,
2012-10-02 14:03:00,60.4,36.0,30.13,North,0,0.0,0.0,40,0.00,,,0.00,WUHU21623XXSP,2012-10-02 21:03:00,
2012-10-02 14:08:00,60.4,36.0,30.13,NW,315,0.0,0.0,40,0.00,,,0.00,WUHU21623XXSP,2012-10-02 21:08:00,
2012-10-02 14:13:00,60.4,36.0,30.13,NW,315,0.0,0.0,40,0.00,,,0.00,WUHU21623XXSP,2012-10-02 21:13:00,
2012-10-02 14:18:00,60.4,36.0,30.13,NE,45,0.0,0.0,40,0.00,,,0.00,WUHU21623XXSP,2012-10-02 21:18:00,
2012-10-02 14:23:00,60.6,35.4,30.13,NNE,22,0.0,0.0,40,0.00,,,0.00,WUHU21623XXSP,2012-10-02 21:23:00,
2012-10-02 14:28:00,60.6,35.4,30.13,WNW,292,0.0,0.0,39,0.00,,,0.00,WUHU21623XXSP,2012-10-02 21:28:00,
2012-10-02 14:33:00,60.6,35.4,30.12,North,0,0.0,0.0,39,0.00,,,0.00,WUHU21623XXSP,2012-10-02 21:33:00,
2012-10-02 14:38:00,60.3,35.8,30.13,NNW,337,0.0,0.0,40,0.00,,,0.00,WUHU21623XXSP,2012-10-02 21:38:00,
2012-10-02 14:43:00,60.1,35.7,30.12,NNW,337,0.0,0.0,40,0.00,,,0.00,WUHU21623XXSP,2012-10-02 21:43:00,
2012-10-02 14:48:00,59.9,35.5,30.13,NNW,337,0.0,0.0,40,0.00,,,0.00,WUHU21623XXSP,2012-10-02 21:48:00,
2012-10-02 14:53:00,59.7,35.9,30.12,North,0,0.0,0.0,41,0.00,,,0.00,WUHU21623XXSP,2012-10-02 21:53:00,
2012-10-02 14:58:00,59.7,35.9,30.13,NNW,337,0.0,0.0,41,0.00,,,0.00,WUHU21623XXSP,2012-10-02 21:58:00,
2012-10-02 15:03:00,59.7,36.5,30.13,NW,315,0.0,0.0,42,0.00,,,0.00,WUHU21623XXSP,2012-10-02 22:03:00,
2012-10-02 15:08:00,59.5,36.3,30.13,NW,315,0.0,0.0,42,0.00,,,0.00,WUHU21623XXSP,2012-10-02 22:08:00,
2012-10-02 15:13:00,59.4,36.2,30.13,NNW,337,0.0,0.0,42,0.00,,,0.00,WUHU21623XXSP,2012-10-02 22:13:00,
2012-10-02 15:18:00,59.2,36.0,30.13,North,0,0.0,0.0,42,0.00,,,0.00,WUHU21623XXSP,2012-10-02 22:18:00,
2012-10-02 15:23:00,59.0,36.4,30.13,NE,45,0.0,0.0,43,0.00,,,0.00,WUHU21623XXSP,2012-10-02 22:23:00,
2012-10-02 15:28:00,58.8,36.3,30.13,SW,225,0.0,0.0,43,0.00,,,0.00,WUHU21623XXSP,2012-10-02 22:28:00,
2012-10-02 15:33:00,58.8,36.3,30.13,North,0,0.0,0.0,43,0.00,,,0.00,WUHU21623XXSP,2012-10-02 22:33:00,
2012-10-02 15:38:00,58.8,36.3,30.14,WNW,292,0.0,0.0,43,0.00,,,0.00,WUHU21623XXSP,2012-10-02 22:38:00,
2012-10-02 15:43:00,58.8,36.3,30.14,NNW,337,0.0,0.0,43,0.00,,,0.00,WUHU21623XXSP,2012-10-02 22:43:00,
2012-10-02 15:48:00,58.6,36.7,30.15,NW,315,0.0,0.0,44,0.00,,,0.00,WUHU21623XXSP,2012-10-02 22:48:00,
2012-10-02 15:53:00,58.3,36.9,30.15,NNW,337,0.0,0.0,45,0.00,,,0.00,WUHU21623XXSP,2012-10-02 22:53:00,
2012-10-02 15:58:00,58.1,36.8,30.15,North,0,0.0,0.0,45,0.00,,,0.00,WUHU21623XXSP,2012-10-02 22:58:00,
2012-10-02 16:03:00,57.9,37.2,30.15,North,0,0.0,0.0,46,0.00,,,0.00,WUHU21623XXSP,2012-10-02 23:03:00,
2012-10-02 16:08:00,57.7,37.6,30.15,NW,315,0.0,0.0,47,0.00,,,0.00,WUHU21623XXSP,2012-10-02 23:08:00,
2012-10-02 16:13:00,57.7,38.2,30.15,NNW,337,0.0,0.0,48,0.00,,,0.00,WUHU21623XXSP,2012-10-02 23:13:00,
2012-10-02 16:18:00,57.6,38.6,30.15,NW,315,0.0,0.0,49,0.00,,,0.00,WUHU21623XXSP,2012-10-02 23:18:00,
2012-10-02 16:23:00,57.4,38.6,30.15,NNE,22,0.0,0.0,49,0.00,,,0.00,WUHU21623XXSP,2012-10-02 23:23:00,
2012-10-02 16:28:00,57.4,39.0,30.15,WNW,292,0.0,0.0,50,0.00,,,0.00,WUHU21623XXSP,2012-10-02 23:28:00,
2012-10-02 16:33:00,57.4,39.0,30.15,NNW,337,0.0,0.0,50,0.00,,,0.00,WUHU21623XXSP,2012-10-02 23:33:00,
2012-10-02 16:38:00,57.2,39.3,30.15,NNW,337,0.0,0.0,51,0.00,,,0.00,WUHU21623XXSP,2012-10-02 23:38:00,
2012-10-02 16:43:00,57.0,39.1,30.15,North,0,0.0,0.0,51,0.00,,,0.00,WUHU21623XXSP,2012-10-02 23:43:00,
2012-10-02 16:48:00,56.8,39.4,30.15,NW,315,0.0,0.0,52,0.00,,,0.00,WUHU21623XXSP,2012-10-02 23:48:00,
2012-10-02 16:53:00,56.8,39.4,30.15,NW,315,0.0,0.0,52,0.00,,,0.00,WUHU21623XXSP,2012-10-02 23:53:00,
2012-10-02 16:58:00,56.8,39.4,30.15,NW,315,0.0,0.0,52,0.00,,,0.00,WUHU21623XXSP,2012-10-02 23:58:00,
2012-10-02 17:03:00,56.7,39.9,30.15,NNW,337,0.0,0.0,53,0.00,,,0.00,WUHU21623XXSP,2012-10-03 00:03:00,
2012-10-02 17:08:00,56.5,39.5,30.15,NW,315,0.0,0.0,53,0.00,,,0.00,WUHU21623XXSP,2012-10-03 00:08:00,
2012-10-02 17:13:00,56.5,39.5,30.15,WSW,247,0.0,0.0,53,0.00,,,0.00,WUHU21623XXSP,2012-10-03 00:13:00,
2012-10-02 17:18:00,56.3,39.3,30.15,NE,45,0.0,0.0,53,0.00,,,0.00,WUHU21623XXSP,2012-10-03 00:18:00,
2012-10-02 17:23:00,56.1,39.2,30.15,NNW,337,0.0,0.0,53,0.00,,,0.00,WUHU21623XXSP,2012-10-03 00:23:00,
2012-10-02 17:28:00,56.1,39.2,30.16,NNW,337,0.0,0.0,53,0.00,,,0.00,WUHU21623XXSP,2012-10-03 00:28:00,
2012-10-02 17:33:00,55.9,39.0,30.16,NW,315,0.0,0.0,53,0.00,,,0.00,WUHU21623XXSP,2012-10-03 00:33:00,
2012-10-02 17:38:00,55.8,38.8,30.16,NNW,337,0.0,0.0,53,0.00,,,0.00,WUHU21623XXSP,2012-10-03 00:38:00,
2012-10-02 17:43:00,55.6,38.6,30.15,NNW,337,0.0,0.0,53,0.00,,,0.00,WUHU21623XXSP,2012-10-03 00:43:00,
2012-10-02 17:48:00,55.2,38.8,30.15,NNW,337,0.0,0.0,54,0.00,,,0.00,WUHU21623XXSP,2012-10-03 00:48:00,
2012-10-02 17:53:00,55.2,39.2,30.15,NNW,337,0.0,0.0,55,0.00,,,0.00,WUHU21623XXSP,2012-10-03 00:53:00,
2012-10-02 17:58:00,55.0,39.1,30.15,NNW,337,0.0,0.0,55,0.00,,,0.00,WUHU21623XXSP,2012-10-03 00:58:00,
2012-10-02 18:03:00,54.7,39.2,30.15,NNW,337,0.0,0.0,56,0.00,,,0.00,WUHU21623XXSP,2012-10-03 01:03:00,
2012-10-02 18:08:00,54.5,39.0,30.15,NNW,337,0.0,0.0,56,0.00,,,0.00,WUHU21623XXSP,2012-10-03 01:08:00,
2012-10-02 18:13:00,54.3,39.3,30.15,North,0,0.0,0.0,57,0.00,,,0.00,WUHU21623XXSP,2012-10-03 01:13:00,
2012-10-02 18:18:00,54.1,39.6,30.15,North,0,0.0,0.0,58,0.00,,,0.00,WUHU21623XXSP,2012-10-03 01:18:00,
2012-10-02 18:23:00,54.0,39.5,30.15,NNW,337,0.0,0.0,58,0.00,,,0.00,WUHU21623XXSP,2012-10-03 01:23:00,
2012-10-02 18:28:00,53.8,39.3,30.15,NNW,337,0.0,0.0,58,0.00,,,0.00,WUHU21623XXSP,2012-10-03 01:28:00,
2012-10-02 18:33:00,53.4,39.5,30.15,NNW,337,0.0,0.0,59,0.00,,,0.00,WUHU21623XXSP,2012-10-03 01:33:00,
2012-10-02 18:38:00,53.4,39.5,30.15,NNW,337,0.0,0.0,59,0.00,,,0.00,WUHU21623XXSP,2012-10-03 01:38:00,
2012-10-02 18:43:00,53.2,39.3,30.15,NNW,337,0.0,0.0,59,0.00,,,0.00,WUHU21623XXSP,2012-10-03 01:43:00,
2012-10-02 18:48:00,52.9,39.4,30.16,NNW,337,0.0,0.0,60,0.00,,,0.00,WUHU21623XXSP,2012-10-03 01:48:00,
2012-10-02 18:53:00,52.7,39.6,30.16,NNW,337,0.0,0.0,61,0.00,,,0.00,WUHU21623XXSP,2012-10-03 01:53:00,
2012-10-02 18:58:00,52.5,39.4,30.16,West,270,0.0,0.0,61,0.00,,,0.00,WUHU21623XXSP,2012-10-03 01:58:00,
2012-10-02 19:03:00,52.2,39.5,30.16,West,270,0.0,0.0,62,0.00,,,0.00,WUHU21623XXSP,2012-10-03 02:03:00,
2012-10-02 19:08:00,51.8,39.5,30.16,WSW,247,0.0,0.0,63,0.00,,,0.00,WUHU21623XXSP,2012-10-03 02:08:00,
2012-10-02 19:13:00,51.6,39.4,30.16,WSW,247,0.0,0.0,63,0.00,,,0.00,WUHU21623XXSP,2012-10-03 02:13:00,
2012-10-02 19:18:00,51.1,39.3,30.16,South,180,0.0,0.0,64,0.00,,,0.00,WUHU21623XXSP,2012-10-03 02:18:00,
2012-10-02 19:23:00,50.9,39.5,30.16,SW,225,0.0,0.0,65,0.00,,,0.00,WUHU21623XXSP,2012-10-03 02:23:00,
2012-10-02 19:28:00,50.5,39.2,30.17,SW,225,0.0,0.0,65,0.00,,,0.00,WUHU21623XXSP,2012-10-03 02:28:00,
2012-10-02 19:33:00,50.2,39.2,30.17,SW,225,0.0,0.0,66,0.00,,,0.00,WUHU21623XXSP,2012-10-03 02:33:00,
2012-10-02 19:38:00,49.8,38.9,30.17,SW,225,0.0,0.0,66,0.00,,,0.00,WUHU21623XXSP,2012-10-03 02:38:00,
2012-10-02 19:43:00,49.6,39.1,30.17,SW,225,0.0,0.0,67,0.00,,,0.00,WUHU21623XXSP,2012-10-03 02:43:00,
2012-10-02 19:48:00,49.3,39.1,30.17,SW,225,0.0,0.0,68,0.00,,,0.00,WUHU21623XXSP,2012-10-03 02:48:00,
2012-10-02 19:53:00,49.1,39.0,30.17,SW,225,0.0,0.0,68,0.00,,,0.00,WUHU21623XXSP,2012-10-03 02:53:00,
2012-10-02 19:58:00,48.7,39.0,30.17,SSW,202,0.0,0.0,69,0.00,,,0.00,WUHU21623XXSP,2012-10-03 02:58:00,
2012-10-02 20:03:00,48.6,39.2,30.17,SE,135,0.0,0.0,70,0.00,,,0.00,WUHU21623XXSP,2012-10-03 03:03:00,
2012-10-02 20:08:00,48.4,39.4,30.17,SE,135,0.0,0.0,71,0.00,,,0.00,WUHU21623XXSP,2012-10-03 03:08:00,
2012-10-02 20:13:00,48.0,39.0,30.17,SE,135,0.0,0.0,71,0.00,,,0.00,WUHU21623XXSP,2012-10-03 03:13:00,
2012-10-02 20:18:00,47.8,38.9,30.18,SE,135,0.0,0.0,71,0.00,,,0.00,WUHU21623XXSP,2012-10-03 03:18:00,
2012-10-02 20:23:00,47.8,39.2,30.17,SE,135,0.0,0.0,72,0.00,,,0.00,WUHU21623XXSP,2012-10-03 03:23:00,
2012-10-02 20:28:00,47.7,39.0,30.18,SE,135,0.0,0.0,72,0.00,,,0.00,WUHU21623XXSP,2012-10-03 03:28:00,
2012-10-02 20:33:00,47.5,39.2,30.18,SE,135,0.0,0.0,73,0.00,,,0.00,WUHU21623XXSP,2012-10-03 03:33:00,
2012-10-02 20:38:00,47.5,39.2,30.18,SSE,157,0.0,0.0,73,0.00,,,0.00,WUHU21623XXSP,2012-10-03 03:38:00,
2012-10-02 20:43:00,47.3,39.4,30.18,SSE,157,0.0,0.0,74,0.00,,,0.00,WUHU21623XXSP,2012-10-03 03:43:00,
2012-10-02 20:48:00,47.1,39.2,30.18,SSE,157,0.0,0.0,74,0.00,,,0.00,WUHU21623XXSP,2012-10-03 03:48:00,
2012-10-02 20:53:00,46.9,39.4,30.19,SSE,157,0.0,0.0,75,0.00,,,0.00,WUHU21623XXSP,2012-10-03 03:53:00,
2012-10-02 20:58:00,46.9,39.4,30.19,SSE,157,0.0,0.0,75,0.00,,,0.00,WUHU21623XXSP,2012-10-03 03:58:00,
2012-10-02 21:00:00,46.9,39.4,30.19,SSE,157,0.0,0.0,75,0.00,,,0.00,WUHU21623XXSP,2012-10-03 04:00:00,
2012-10-02 21:02:00,46.8,39.3,30.19,SSE,157,0.0,0.0,75,0.00,,,0.00,WUHU21623XXSP,2012-10-03 04:02:00,
2012-10-02 21:07:00,46.6,39.4,30.19,SSE,157,0.0,0.0,76,0.00,,,0.00,WUHU21623XXSP,2012-10-03 04:07:00,
2012-10-02 21:12:00,46.6,39.4,30.19,SSE,157,0.0,0.0,76,0.00,,,0.00,WUHU21623XXSP,2012-10-03 04:12:00,
2012-10-02 21:17:00,46.2,39.1,30.19,SSE,157,0.0,0.0,76,0.00,,,0.00,WUHU21623XXSP,2012-10-03 04:17:00,
2012-10-02 21:22:00,46.2,39.1,30.19,SSE,157,0.0,0.0,76,0.00,,,0.00,WUHU21623XXSP,2012-10-03 04:22:00,
2012-10-02 21:27:00,46.0,39.1,30.20,SSE,157,0.0,0.0,76,0.00,,,0.00,WUHU21623XXSP,2012-10-03 04:27:00,
2012-10-02 21:32:00,46.0,39.3,30.20,SSE,157,0.0,0.0,77,0.00,,,0.00,WUHU21623XXSP,2012-10-03 04:32:00,
2012-10-02 21:37:00,45.7,38.9,30.20,SSE,157,0.0,0.0,77,0.00,,,0.00,WUHU21623XXSP,2012-10-03 04:37:00,
2012-10-02 21:43:00,45.7,38.9,30.20,SSE,157,0.0,0.0,77,0.00,,,0.00,WUHU21623XXSP,2012-10-03 04:43:00,
2012-10-02 21:48:00,45.5,38.7,30.20,SSE,157,0.0,0.0,77,0.00,,,0.00,WUHU21623XXSP,2012-10-03 04:48:00,
2012-10-02 21:53:00,45.3,38.9,30.20,SSE,157,0.0,0.0,78,0.00,,,0.00,WUHU21623XXSP,2012-10-03 04:53:00,
2012-10-02 21:58:00,45.1,38.7,30.20,SSE,157,0.0,0.0,78,0.00,,,0.00,WUHU21623XXSP,2012-10-03 04:58:00,
2012-10-02 22:03:00,45.0,38.9,30.20,SE,135,0.0,0.0,79,0.00,,,0.00,WUHU21623XXSP,2012-10-03 05:03:00,
2012-10-02 22:08:00,44.6,38.5,30.20,SE,135,0.0,0.0,79,0.00,,,0.00,WUHU21623XXSP,2012-10-03 05:08:00,
2012-10-02 22:13:00,44.4,38.3,30.21,SE,135,0.0,0.0,79,0.00,,,0.00,WUHU21623XXSP,2012-10-03 05:13:00,
2012-10-02 22:18:00,44.2,38.1,30.21,ESE,112,0.0,0.0,79,0.00,,,0.00,WUHU21623XXSP,2012-10-03 05:18:00,
2012-10-02 22:23:00,44.1,38.0,30.21,ESE,112,0.0,0.0,79,0.00,,,0.00,WUHU21623XXSP,2012-10-03 05:23:00,
2012-10-02 22:28:00,43.9,37.8,30.22,ESE,112,0.0,0.0,79,0.00,,,0.00,WUHU21623XXSP,2012-10-03 05:28:00,
2012-10-02 22:33:00,43.7,37.6,30.22,ESE,112,0.0,0.0,80,0.00,,,0.00,WUHU21623XXSP,2012-10-03 05:33:00,
2012-10-02 22:38:00,43.5,37.8,30.23,ESE,112,0.0,0.0,80,0.00,,,0.00,WUHU21623XXSP,2012-10-03 05:38:00,
2012-10-02 22:43:00,43.5,37.8,30.23,ESE,112,0.0,0.0,80,0.00,,,0.00,WUHU21623XXSP,2012-10-03 05:43:00,
2012-10-02 22:48:00,43.3,37.6,30.23,ESE,112,0.0,0.0,80,0.00,,,0.00,WUHU21623XXSP,2012-10-03 05:48:00,
2012-10-02 22:53:00,43.2,37.6,30.22,ESE,112,0.0,0.0,80,0.00,,,0.00,WUHU21623XXSP,2012-10-03 05:53:00,
2012-10-02 22:58:00,43.0,37.2,30.22,ESE,112,0.0,0.0,80,0.00,,,0.00,WUHU21623XXSP,2012-10-03 05:58:00,
2012-10-02 23:03:00,43.0,37.2,30.23,ESE,112,0.0,0.0,80,0.00,,,0.00,WUHU21623XXSP,2012-10-03 06:03:00,
2012-10-02 23:08:00,42.6,36.9,30.23,ESE,112,0.0,0.0,80,0.00,,,0.00,WUHU21623XXSP,2012-10-03 06:08:00,
2012-10-02 23:13:00,42.6,36.9,30.23,ESE,112,0.0,0.0,80,0.00,,,0.00,WUHU21623XXSP,2012-10-03 06:13:00,
2012-10-02 23:18:00,42.4,36.7,30.23,ESE,112,0.0,0.0,80,0.00,,,0.00,WUHU21623XXSP,2012-10-03 06:18:00,
2012-10-02 23:23:00,42.4,36.7,30.23,SE,135,0.0,0.0,80,0.00,,,0.00,WUHU21623XXSP,2012-10-03 06:23:00,
2012-10-02 23:28:00,42.1,36.3,30.23,SE,135,0.0,0.0,80,0.00,,,0.00,WUHU21623XXSP,2012-10-03 06:28:00,
2012-10-02 23:33:00,41.9,36.4,30.24,ESE,112,0.0,0.0,81,0.00,,,0.00,WUHU21623XXSP,2012-10-03 06:33:00,
2012-10-02 23:38:00,41.7,36.3,30.24,ESE,112,0.0,0.0,81,0.00,,,0.00,WUHU21623XXSP,2012-10-03 06:38:00,
2012-10-02 23:43:00,41.5,36.1,30.24,NE,45,0.0,0.0,81,0.00,,,0.00,WUHU21623XXSP,2012-10-03 06:43:00,
2012-10-02 23:48:00,41.5,36.1,30.24,ESE,112,0.0,0.0,81,0.00,,,0.00,WUHU21623XXSP,2012-10-03 06:48:00,
2012-10-02 23:53:00,41.4,35.9,30.24,ESE,112,0.0,0.0,81,0.00,,,0.00,WUHU21623XXSP,2012-10-03 06:53:00,
2012-10-02 23:58:00,41.2,35.7,30.24,ESE,112,0.0,0.0,81,0.00,,,0.00,WUHU21623XXSP,2012-10-03 06:58:00,